sensor_id;sensor_type;location;lat;lon;timestamp;temperature;humidity
63931;DHT22;50111;48.114;-2.066;2022-11-11T00:01:45;12.30;99.90
63931;DHT22;50111;48.114;-2.066;2022-11-11T00:04:11;12.30;99.90
63931;DHT22;50111;48.114;-2.066;2022-11-11T00:06:36;12.40;99.90
63931;DHT22;50111;48.114;-2.066;2022-11-11T00:09:03;12.40;99.90
63931;DHT22;50111;48.114;-2.066;2022-11-11T00:11:28;12.40;99.90
63931;DHT22;50111;48.114;-2.066;2022-11-11T00:13:54;12.40;99.90
63931;DHT22;50111;48.114;-2.066;2022-11-11T00:16:19;12.30;99.90
63931;DHT22;50111;48.114;-2.066;2022-11-11T00:18:45;12.40;99.90
63931;DHT22;50111;48.114;-2.066;2022-11-11T00:21:29;12.40;99.90
63931;DHT22;50111;48.114;-2.066;2022-11-11T00:24:01;12.30;99.90
63931;DHT22;50111;48.114;-2.066;2022-11-11T00:26:45;12.40;99.90
63931;DHT22;50111;48.114;-2.066;2022-11-11T00:29:11;12.30;99.90
63931;DHT22;50111;48.114;-2.066;2022-11-11T00:31:36;12.30;99.90
63931;DHT22;50111;48.114;-2.066;2022-11-11T00:34:22;12.30;99.90
63931;DHT22;50111;48.114;-2.066;2022-11-11T00:36:47;12.30;99.90
63931;DHT22;50111;48.114;-2.066;2022-11-11T00:39:13;12.30;99.90
63931;DHT22;50111;48.114;-2.066;2022-11-11T00:41:38;12.30;99.90
63931;DHT22;50111;48.114;-2.066;2022-11-11T00:44:04;12.30;99.90
63931;DHT22;50111;48.114;-2.066;2022-11-11T00:46:29;12.30;99.90
63931;DHT22;50111;48.114;-2.066;2022-11-11T00:49:13;12.30;99.90
63931;DHT22;50111;48.114;-2.066;2022-11-11T00:51:57;12.20;99.90
63931;DHT22;50111;48.114;-2.066;2022-11-11T00:54:23;12.10;99.90
63931;DHT22;50111;48.114;-2.066;2022-11-11T00:56:48;12.10;99.90
63931;DHT22;50111;48.114;-2.066;2022-11-11T00:59:14;12.00;99.90
63931;DHT22;50111;48.114;-2.066;2022-11-11T01:01:39;12.00;99.90
63931;DHT22;50111;48.114;-2.066;2022-11-11T01:04:05;12.00;99.90
63931;DHT22;50111;48.114;-2.066;2022-11-11T01:06:31;12.00;99.90
63931;DHT22;50111;48.114;-2.066;2022-11-11T01:08:56;12.00;99.90
63931;DHT22;50111;48.114;-2.066;2022-11-11T01:11:22;12.00;99.90
63931;DHT22;50111;48.114;-2.066;2022-11-11T01:13:49;12.00;99.90
63931;DHT22;50111;48.114;-2.066;2022-11-11T01:16:24;12.00;99.90
63931;DHT22;50111;48.114;-2.066;2022-11-11T01:18:50;12.00;99.90
63931;DHT22;50111;48.114;-2.066;2022-11-11T01:21:17;12.00;99.90
63931;DHT22;50111;48.114;-2.066;2022-11-11T01:23:43;12.10;99.90
63931;DHT22;50111;48.114;-2.066;2022-11-11T01:26:12;12.10;99.90
63931;DHT22;50111;48.114;-2.066;2022-11-11T01:28:37;12.00;99.90
63931;DHT22;50111;48.114;-2.066;2022-11-11T01:31:04;12.00;99.90
63931;DHT22;50111;48.114;-2.066;2022-11-11T01:33:30;12.00;99.90
63931;DHT22;50111;48.114;-2.066;2022-11-11T01:35:55;12.00;99.90
63931;DHT22;50111;48.114;-2.066;2022-11-11T01:38:21;12.00;99.90
63931;DHT22;50111;48.114;-2.066;2022-11-11T01:40:47;12.10;99.90
63931;DHT22;50111;48.114;-2.066;2022-11-11T01:48:10;11.80;99.90
63931;DHT22;50111;48.114;-2.066;2022-11-11T01:50:56;11.80;99.90
63931;DHT22;50111;48.114;-2.066;2022-11-11T01:53:22;11.80;99.90
63931;DHT22;50111;48.114;-2.066;2022-11-11T01:55:48;11.80;99.90
63931;DHT22;50111;48.114;-2.066;2022-11-11T01:58:13;11.70;99.90
63931;DHT22;50111;48.114;-2.066;2022-11-11T02:00:40;11.70;99.90
63931;DHT22;50111;48.114;-2.066;2022-11-11T02:03:07;11.60;99.90
63931;DHT22;50111;48.114;-2.066;2022-11-11T02:05:33;11.60;99.90
63931;DHT22;50111;48.114;-2.066;2022-11-11T02:10:35;11.60;99.90
63931;DHT22;50111;48.114;-2.066;2022-11-11T02:13:01;11.50;99.90
63931;DHT22;50111;48.114;-2.066;2022-11-11T02:15:46;11.50;99.90
63931;DHT22;50111;48.114;-2.066;2022-11-11T02:18:11;11.40;99.90
63931;DHT22;50111;48.114;-2.066;2022-11-11T02:20:38;11.40;99.90
63931;DHT22;50111;48.114;-2.066;2022-11-11T02:25:38;11.30;99.90
63931;DHT22;50111;48.114;-2.066;2022-11-11T02:28:06;11.30;99.90
63931;DHT22;50111;48.114;-2.066;2022-11-11T02:30:32;11.30;99.90
63931;DHT22;50111;48.114;-2.066;2022-11-11T02:32:57;11.20;99.90
63931;DHT22;50111;48.114;-2.066;2022-11-11T02:35:24;11.30;99.90
63931;DHT22;50111;48.114;-2.066;2022-11-11T02:37:50;11.30;99.90
63931;DHT22;50111;48.114;-2.066;2022-11-11T02:40:59;11.20;99.90
63931;DHT22;50111;48.114;-2.066;2022-11-11T02:43:25;11.10;99.90
63931;DHT22;50111;48.114;-2.066;2022-11-11T02:45:51;11.00;99.90
63931;DHT22;50111;48.114;-2.066;2022-11-11T02:48:17;11.00;99.90
63931;DHT22;50111;48.114;-2.066;2022-11-11T02:50:42;10.90;99.90
63931;DHT22;50111;48.114;-2.066;2022-11-11T02:53:08;10.80;99.90
63931;DHT22;50111;48.114;-2.066;2022-11-11T02:55:33;10.80;99.90
63931;DHT22;50111;48.114;-2.066;2022-11-11T02:57:59;10.70;99.90
63931;DHT22;50111;48.114;-2.066;2022-11-11T03:00:24;10.70;99.90
63931;DHT22;50111;48.114;-2.066;2022-11-11T03:02:50;10.70;99.90
63931;DHT22;50111;48.114;-2.066;2022-11-11T03:05:15;10.70;99.90
63931;DHT22;50111;48.114;-2.066;2022-11-11T03:07:41;10.70;99.90
63931;DHT22;50111;48.114;-2.066;2022-11-11T03:10:07;10.70;99.90
63931;DHT22;50111;48.114;-2.066;2022-11-11T03:12:32;10.70;99.90
63931;DHT22;50111;48.114;-2.066;2022-11-11T03:14:58;10.60;99.90
63931;DHT22;50111;48.114;-2.066;2022-11-11T03:17:23;10.60;99.90
63931;DHT22;50111;48.114;-2.066;2022-11-11T03:20:07;10.50;99.90
63931;DHT22;50111;48.114;-2.066;2022-11-11T03:23:06;10.40;99.90
63931;DHT22;50111;48.114;-2.066;2022-11-11T03:25:32;10.50;99.90
63931;DHT22;50111;48.114;-2.066;2022-11-11T03:30:29;10.50;99.90
63931;DHT22;50111;48.114;-2.066;2022-11-11T03:32:55;10.30;99.90
63931;DHT22;50111;48.114;-2.066;2022-11-11T03:35:20;10.40;99.90
63931;DHT22;50111;48.114;-2.066;2022-11-11T03:37:46;10.30;99.90
63931;DHT22;50111;48.114;-2.066;2022-11-11T03:40:30;10.20;99.90
63931;DHT22;50111;48.114;-2.066;2022-11-11T03:42:55;10.10;99.90
63931;DHT22;50111;48.114;-2.066;2022-11-11T03:45:21;10.10;99.90
63931;DHT22;50111;48.114;-2.066;2022-11-11T03:47:46;10.20;99.90
63931;DHT22;50111;48.114;-2.066;2022-11-11T03:50:12;10.30;99.90
63931;DHT22;50111;48.114;-2.066;2022-11-11T03:52:40;10.40;99.90
63931;DHT22;50111;48.114;-2.066;2022-11-11T03:55:07;10.40;99.90
63931;DHT22;50111;48.114;-2.066;2022-11-11T03:57:33;10.40;99.90
63931;DHT22;50111;48.114;-2.066;2022-11-11T03:59:59;10.30;99.90
63931;DHT22;50111;48.114;-2.066;2022-11-11T04:02:24;10.30;99.90
63931;DHT22;50111;48.114;-2.066;2022-11-11T04:05:08;10.40;99.90
63931;DHT22;50111;48.114;-2.066;2022-11-11T04:07:52;10.40;99.90
63931;DHT22;50111;48.114;-2.066;2022-11-11T04:10:37;10.40;99.90
63931;DHT22;50111;48.114;-2.066;2022-11-11T04:13:02;10.40;99.90
63931;DHT22;50111;48.114;-2.066;2022-11-11T04:15:47;10.30;99.90
63931;DHT22;50111;48.114;-2.066;2022-11-11T04:18:31;10.30;99.90
63931;DHT22;50111;48.114;-2.066;2022-11-11T04:21:15;10.30;99.90
63931;DHT22;50111;48.114;-2.066;2022-11-11T04:24:01;10.30;99.90
63931;DHT22;50111;48.114;-2.066;2022-11-11T04:26:26;10.20;99.90
63931;DHT22;50111;48.114;-2.066;2022-11-11T04:28:52;10.20;99.90
63931;DHT22;50111;48.114;-2.066;2022-11-11T04:31:36;10.10;99.90
63931;DHT22;50111;48.114;-2.066;2022-11-11T04:34:21;10.10;99.90
63931;DHT22;50111;48.114;-2.066;2022-11-11T04:36:47;10.00;99.90
63931;DHT22;50111;48.114;-2.066;2022-11-11T04:39:12;10.00;99.90
63931;DHT22;50111;48.114;-2.066;2022-11-11T04:41:56;10.00;99.90
63931;DHT22;50111;48.114;-2.066;2022-11-11T04:44:22;10.00;99.90
63931;DHT22;50111;48.114;-2.066;2022-11-11T04:47:06;10.00;99.90
63931;DHT22;50111;48.114;-2.066;2022-11-11T04:49:31;9.90;99.90
63931;DHT22;50111;48.114;-2.066;2022-11-11T04:51:57;9.70;99.90
63931;DHT22;50111;48.114;-2.066;2022-11-11T04:54:41;9.70;99.90
63931;DHT22;50111;48.114;-2.066;2022-11-11T04:57:25;9.80;99.90
63931;DHT22;50111;48.114;-2.066;2022-11-11T04:59:51;9.90;99.90
63931;DHT22;50111;48.114;-2.066;2022-11-11T05:02:16;9.90;99.90
63931;DHT22;50111;48.114;-2.066;2022-11-11T05:05:01;9.90;99.90
63931;DHT22;50111;48.114;-2.066;2022-11-11T05:07:26;9.70;99.90
63931;DHT22;50111;48.114;-2.066;2022-11-11T05:10:10;9.70;99.90
63931;DHT22;50111;48.114;-2.066;2022-11-11T05:12:35;9.60;99.90
63931;DHT22;50111;48.114;-2.066;2022-11-11T05:15:01;9.50;99.90
63931;DHT22;50111;48.114;-2.066;2022-11-11T05:17:45;9.50;99.90
63931;DHT22;50111;48.114;-2.066;2022-11-11T05:20:29;9.30;99.90
63931;DHT22;50111;48.114;-2.066;2022-11-11T05:23:13;9.30;99.90
63931;DHT22;50111;48.114;-2.066;2022-11-11T05:25:39;9.20;99.90
63931;DHT22;50111;48.114;-2.066;2022-11-11T05:28:04;9.20;99.90
63931;DHT22;50111;48.114;-2.066;2022-11-11T05:30:30;9.20;99.90
63931;DHT22;50111;48.114;-2.066;2022-11-11T05:32:55;9.10;99.90
63931;DHT22;50111;48.114;-2.066;2022-11-11T05:35:21;9.20;99.90
63931;DHT22;50111;48.114;-2.066;2022-11-11T05:37:47;9.30;99.90
63931;DHT22;50111;48.114;-2.066;2022-11-11T05:40:32;9.20;99.90
63931;DHT22;50111;48.114;-2.066;2022-11-11T05:42:58;9.30;99.90
63931;DHT22;50111;48.114;-2.066;2022-11-11T05:45:23;9.20;99.90
63931;DHT22;50111;48.114;-2.066;2022-11-11T05:47:48;9.20;99.90
63931;DHT22;50111;48.114;-2.066;2022-11-11T05:50:14;9.30;99.90
63931;DHT22;50111;48.114;-2.066;2022-11-11T05:52:41;9.20;99.90
63931;DHT22;50111;48.114;-2.066;2022-11-11T05:55:11;9.20;99.90
63931;DHT22;50111;48.114;-2.066;2022-11-11T05:57:36;9.20;99.90
63931;DHT22;50111;48.114;-2.066;2022-11-11T06:00:02;9.30;99.90
63931;DHT22;50111;48.114;-2.066;2022-11-11T06:02:28;9.30;99.90
63931;DHT22;50111;48.114;-2.066;2022-11-11T06:04:53;9.40;99.90
63931;DHT22;50111;48.114;-2.066;2022-11-11T06:07:19;9.50;99.90
63931;DHT22;50111;48.114;-2.066;2022-11-11T06:09:45;9.50;99.90
63931;DHT22;50111;48.114;-2.066;2022-11-11T06:12:10;9.70;99.90
63931;DHT22;50111;48.114;-2.066;2022-11-11T06:14:36;9.70;99.90
63931;DHT22;50111;48.114;-2.066;2022-11-11T06:17:01;9.70;99.90
63931;DHT22;50111;48.114;-2.066;2022-11-11T06:19:27;9.70;99.90
63931;DHT22;50111;48.114;-2.066;2022-11-11T06:21:52;9.80;99.90
63931;DHT22;50111;48.114;-2.066;2022-11-11T06:24:25;9.70;99.90
63931;DHT22;50111;48.114;-2.066;2022-11-11T06:26:50;9.90;99.90
63931;DHT22;50111;48.114;-2.066;2022-11-11T06:29:16;9.90;99.90
63931;DHT22;50111;48.114;-2.066;2022-11-11T06:31:41;10.00;99.90
63931;DHT22;50111;48.114;-2.066;2022-11-11T06:34:07;10.00;99.90
63931;DHT22;50111;48.114;-2.066;2022-11-11T06:36:32;9.90;99.90
63931;DHT22;50111;48.114;-2.066;2022-11-11T06:38:58;10.00;99.90
63931;DHT22;50111;48.114;-2.066;2022-11-11T06:41:24;10.00;99.90
63931;DHT22;50111;48.114;-2.066;2022-11-11T06:43:50;10.00;99.90
63931;DHT22;50111;48.114;-2.066;2022-11-11T06:46:16;10.00;99.90
63931;DHT22;50111;48.114;-2.066;2022-11-11T06:48:44;9.90;99.90
63931;DHT22;50111;48.114;-2.066;2022-11-11T06:51:10;9.90;99.90
63931;DHT22;50111;48.114;-2.066;2022-11-11T06:53:36;9.90;99.90
63931;DHT22;50111;48.114;-2.066;2022-11-11T06:56:02;10.00;99.90
63931;DHT22;50111;48.114;-2.066;2022-11-11T06:58:27;10.00;99.90
63931;DHT22;50111;48.114;-2.066;2022-11-11T07:00:53;10.10;99.90
63931;DHT22;50111;48.114;-2.066;2022-11-11T07:03:19;10.10;99.90
63931;DHT22;50111;48.114;-2.066;2022-11-11T07:05:45;10.10;99.90
63931;DHT22;50111;48.114;-2.066;2022-11-11T07:08:11;10.10;99.90
63931;DHT22;50111;48.114;-2.066;2022-11-11T07:10:38;10.00;99.90
63931;DHT22;50111;48.114;-2.066;2022-11-11T07:13:04;10.00;99.90
63931;DHT22;50111;48.114;-2.066;2022-11-11T07:15:30;10.00;99.90
63931;DHT22;50111;48.114;-2.066;2022-11-11T07:17:56;10.00;99.90
63931;DHT22;50111;48.114;-2.066;2022-11-11T07:20:21;9.80;99.90
63931;DHT22;50111;48.114;-2.066;2022-11-11T07:22:47;9.80;99.90
63931;DHT22;50111;48.114;-2.066;2022-11-11T07:25:12;9.70;99.90
63931;DHT22;50111;48.114;-2.066;2022-11-11T07:27:38;9.80;99.90
63931;DHT22;50111;48.114;-2.066;2022-11-11T07:30:04;9.90;99.90
63931;DHT22;50111;48.114;-2.066;2022-11-11T07:32:30;10.00;99.90
63931;DHT22;50111;48.114;-2.066;2022-11-11T07:34:56;9.90;99.90
63931;DHT22;50111;48.114;-2.066;2022-11-11T07:37:21;10.00;99.90
63931;DHT22;50111;48.114;-2.066;2022-11-11T07:39:47;10.00;99.90
63931;DHT22;50111;48.114;-2.066;2022-11-11T07:42:12;9.90;99.90
63931;DHT22;50111;48.114;-2.066;2022-11-11T07:44:38;9.90;99.90
63931;DHT22;50111;48.114;-2.066;2022-11-11T07:47:03;9.90;99.90
63931;DHT22;50111;48.114;-2.066;2022-11-11T07:49:29;9.90;99.90
63931;DHT22;50111;48.114;-2.066;2022-11-11T07:51:55;10.00;99.90
63931;DHT22;50111;48.114;-2.066;2022-11-11T07:54:20;10.00;99.90
63931;DHT22;50111;48.114;-2.066;2022-11-11T07:56:45;10.00;99.90
63931;DHT22;50111;48.114;-2.066;2022-11-11T07:59:11;10.10;99.90
63931;DHT22;50111;48.114;-2.066;2022-11-11T08:01:36;10.00;99.90
63931;DHT22;50111;48.114;-2.066;2022-11-11T08:04:02;10.10;99.90
63931;DHT22;50111;48.114;-2.066;2022-11-11T08:06:27;10.10;99.90
63931;DHT22;50111;48.114;-2.066;2022-11-11T08:08:54;10.10;99.90
63931;DHT22;50111;48.114;-2.066;2022-11-11T08:11:19;10.10;99.90
63931;DHT22;50111;48.114;-2.066;2022-11-11T08:14:05;10.10;99.90
63931;DHT22;50111;48.114;-2.066;2022-11-11T08:16:30;10.00;99.90
63931;DHT22;50111;48.114;-2.066;2022-11-11T08:18:56;10.00;99.90
63931;DHT22;50111;48.114;-2.066;2022-11-11T08:21:22;10.00;99.90
63931;DHT22;50111;48.114;-2.066;2022-11-11T08:23:48;10.10;99.90
63931;DHT22;50111;48.114;-2.066;2022-11-11T08:26:14;10.10;99.90
63931;DHT22;50111;48.114;-2.066;2022-11-11T08:28:39;10.00;99.90
63931;DHT22;50111;48.114;-2.066;2022-11-11T08:31:05;10.00;99.90
63931;DHT22;50111;48.114;-2.066;2022-11-11T08:33:30;9.80;99.90
63931;DHT22;50111;48.114;-2.066;2022-11-11T08:35:57;9.80;99.90
63931;DHT22;50111;48.114;-2.066;2022-11-11T08:38:23;9.80;99.90
63931;DHT22;50111;48.114;-2.066;2022-11-11T08:40:51;9.70;99.90
63931;DHT22;50111;48.114;-2.066;2022-11-11T08:43:17;9.90;99.90
63931;DHT22;50111;48.114;-2.066;2022-11-11T08:45:42;9.90;99.90
63931;DHT22;50111;48.114;-2.066;2022-11-11T08:48:08;10.00;99.90
63931;DHT22;50111;48.114;-2.066;2022-11-11T08:50:37;10.00;99.90
63931;DHT22;50111;48.114;-2.066;2022-11-11T08:53:03;10.10;99.90
63931;DHT22;50111;48.114;-2.066;2022-11-11T08:55:28;10.20;99.90
63931;DHT22;50111;48.114;-2.066;2022-11-11T08:57:57;10.10;99.90
63931;DHT22;50111;48.114;-2.066;2022-11-11T09:00:23;10.20;99.90
63931;DHT22;50111;48.114;-2.066;2022-11-11T09:02:48;10.30;99.90
63931;DHT22;50111;48.114;-2.066;2022-11-11T09:05:14;10.20;99.90
63931;DHT22;50111;48.114;-2.066;2022-11-11T09:07:39;10.20;99.90
63931;DHT22;50111;48.114;-2.066;2022-11-11T09:10:05;10.20;99.90
63931;DHT22;50111;48.114;-2.066;2022-11-11T09:12:31;10.30;99.90
63931;DHT22;50111;48.114;-2.066;2022-11-11T09:14:56;10.40;99.90
63931;DHT22;50111;48.114;-2.066;2022-11-11T09:17:22;10.40;99.90
63931;DHT22;50111;48.114;-2.066;2022-11-11T09:19:47;10.40;99.90
63931;DHT22;50111;48.114;-2.066;2022-11-11T09:22:13;10.30;99.90
63931;DHT22;50111;48.114;-2.066;2022-11-11T09:24:38;10.40;99.90
63931;DHT22;50111;48.114;-2.066;2022-11-11T09:27:04;10.40;99.90
63931;DHT22;50111;48.114;-2.066;2022-11-11T09:29:29;10.40;99.90
63931;DHT22;50111;48.114;-2.066;2022-11-11T09:31:55;10.40;99.90
63931;DHT22;50111;48.114;-2.066;2022-11-11T09:34:20;10.50;99.90
63931;DHT22;50111;48.114;-2.066;2022-11-11T09:36:46;10.40;99.90
63931;DHT22;50111;48.114;-2.066;2022-11-11T09:39:11;10.50;99.90
63931;DHT22;50111;48.114;-2.066;2022-11-11T09:44:08;10.30;99.90
63931;DHT22;50111;48.114;-2.066;2022-11-11T09:52:10;10.40;99.90
63931;DHT22;50111;48.114;-2.066;2022-11-11T09:54:40;10.40;99.90
63931;DHT22;50111;48.114;-2.066;2022-11-11T09:57:11;10.40;99.90
63931;DHT22;50111;48.114;-2.066;2022-11-11T09:59:56;10.50;99.90
63931;DHT22;50111;48.114;-2.066;2022-11-11T10:02:34;10.50;99.90
63931;DHT22;50111;48.114;-2.066;2022-11-11T10:07:45;10.60;99.90
63931;DHT22;50111;48.114;-2.066;2022-11-11T10:10:17;10.60;99.90
63931;DHT22;50111;48.114;-2.066;2022-11-11T10:12:54;10.50;99.90
63931;DHT22;50111;48.114;-2.066;2022-11-11T10:15:20;10.60;99.90
63931;DHT22;50111;48.114;-2.066;2022-11-11T10:20:34;10.70;99.90
63931;DHT22;50111;48.114;-2.066;2022-11-11T10:23:04;10.70;99.90
63931;DHT22;50111;48.114;-2.066;2022-11-11T10:25:32;10.70;99.90
63931;DHT22;50111;48.114;-2.066;2022-11-11T10:27:59;10.70;99.90
63931;DHT22;50111;48.114;-2.066;2022-11-11T10:30:29;10.70;99.90
63931;DHT22;50111;48.114;-2.066;2022-11-11T10:35:24;10.90;99.90
63931;DHT22;50111;48.114;-2.066;2022-11-11T10:37:51;11.00;99.90
63931;DHT22;50111;48.114;-2.066;2022-11-11T10:40:27;11.00;99.90
63931;DHT22;50111;48.114;-2.066;2022-11-11T10:42:53;11.10;99.90
63931;DHT22;50111;48.114;-2.066;2022-11-11T10:45:21;11.00;99.90
63931;DHT22;50111;48.114;-2.066;2022-11-11T10:47:53;11.00;99.90
63931;DHT22;50111;48.114;-2.066;2022-11-11T10:50:22;11.00;99.90
63931;DHT22;50111;48.114;-2.066;2022-11-11T10:52:54;11.00;99.90
63931;DHT22;50111;48.114;-2.066;2022-11-11T10:55:30;11.10;99.90
63931;DHT22;50111;48.114;-2.066;2022-11-11T10:58:17;11.10;99.90
63931;DHT22;50111;48.114;-2.066;2022-11-11T11:00:44;11.10;99.90
63931;DHT22;50111;48.114;-2.066;2022-11-11T11:03:14;11.10;99.90
63931;DHT22;50111;48.114;-2.066;2022-11-11T11:08:13;11.00;99.90
63931;DHT22;50111;48.114;-2.066;2022-11-11T11:10:41;11.10;99.90
63931;DHT22;50111;48.114;-2.066;2022-11-11T11:13:15;11.10;99.90
63931;DHT22;50111;48.114;-2.066;2022-11-11T11:15:42;11.20;99.90
63931;DHT22;50111;48.114;-2.066;2022-11-11T11:18:14;11.30;99.90
63931;DHT22;50111;48.114;-2.066;2022-11-11T11:20:54;11.20;99.90
63931;DHT22;50111;48.114;-2.066;2022-11-11T11:23:41;11.30;99.90
63931;DHT22;50111;48.114;-2.066;2022-11-11T11:26:06;11.30;99.90
63931;DHT22;50111;48.114;-2.066;2022-11-11T11:28:31;11.20;99.90
63931;DHT22;50111;48.114;-2.066;2022-11-11T11:30:59;11.20;99.90
63931;DHT22;50111;48.114;-2.066;2022-11-11T11:33:25;11.20;99.90
63931;DHT22;50111;48.114;-2.066;2022-11-11T11:35:50;11.20;99.90
63931;DHT22;50111;48.114;-2.066;2022-11-11T11:38:16;11.20;99.90
63931;DHT22;50111;48.114;-2.066;2022-11-11T11:40:53;11.20;99.90
63931;DHT22;50111;48.114;-2.066;2022-11-11T11:43:24;11.20;99.90
63931;DHT22;50111;48.114;-2.066;2022-11-11T11:45:54;11.20;99.90
63931;DHT22;50111;48.114;-2.066;2022-11-11T11:50:50;11.20;99.90
63931;DHT22;50111;48.114;-2.066;2022-11-11T11:58:38;11.20;99.90
63931;DHT22;50111;48.114;-2.066;2022-11-11T12:01:10;11.20;99.90
63931;DHT22;50111;48.114;-2.066;2022-11-11T12:09:22;11.10;99.90
63931;DHT22;50111;48.114;-2.066;2022-11-11T12:25:27;11.30;99.90
63931;DHT22;50111;48.114;-2.066;2022-11-11T12:28:57;11.40;99.90
63931;DHT22;50111;48.114;-2.066;2022-11-11T12:30:51;11.50;99.90
63931;DHT22;50111;48.114;-2.066;2022-11-11T12:46:24;11.50;99.90
63931;DHT22;50111;48.114;-2.066;2022-11-11T12:48:55;11.50;99.90
63931;DHT22;50111;48.114;-2.066;2022-11-11T12:54:04;11.40;99.90
63931;DHT22;50111;48.114;-2.066;2022-11-11T12:56:50;11.50;99.90
63931;DHT22;50111;48.114;-2.066;2022-11-11T12:59:29;11.60;99.90
63931;DHT22;50111;48.114;-2.066;2022-11-11T13:09:55;11.60;99.90
63931;DHT22;50111;48.114;-2.066;2022-11-11T13:12:27;11.60;99.90
63931;DHT22;50111;48.114;-2.066;2022-11-11T13:15:01;11.60;99.90
63931;DHT22;50111;48.114;-2.066;2022-11-11T13:17:27;11.70;99.90
63931;DHT22;50111;48.114;-2.066;2022-11-11T13:19:55;11.80;99.90
63931;DHT22;50111;48.114;-2.066;2022-11-11T13:22:25;11.80;99.90
63931;DHT22;50111;48.114;-2.066;2022-11-11T13:24:51;11.70;99.90
63931;DHT22;50111;48.114;-2.066;2022-11-11T13:30:01;11.80;99.90
63931;DHT22;50111;48.114;-2.066;2022-11-11T13:32:30;11.90;99.90
63931;DHT22;50111;48.114;-2.066;2022-11-11T13:34:57;11.80;99.90
63931;DHT22;50111;48.114;-2.066;2022-11-11T13:37:27;11.80;99.90
63931;DHT22;50111;48.114;-2.066;2022-11-11T13:39:54;11.70;99.90
63931;DHT22;50111;48.114;-2.066;2022-11-11T13:42:23;11.80;99.90
63931;DHT22;50111;48.114;-2.066;2022-11-11T13:44:53;11.70;99.90
63931;DHT22;50111;48.114;-2.066;2022-11-11T13:47:21;11.60;99.90
63931;DHT22;50111;48.114;-2.066;2022-11-11T13:52:43;11.80;99.90
63931;DHT22;50111;48.114;-2.066;2022-11-11T13:55:06;11.90;99.90
63931;DHT22;50111;48.114;-2.066;2022-11-11T13:57:33;11.90;99.90
63931;DHT22;50111;48.114;-2.066;2022-11-11T14:00:22;11.80;99.90
63931;DHT22;50111;48.114;-2.066;2022-11-11T14:03:26;11.90;99.90
63931;DHT22;50111;48.114;-2.066;2022-11-11T14:05:34;11.80;99.90
63931;DHT22;50111;48.114;-2.066;2022-11-11T14:07:59;11.70;99.90
63931;DHT22;50111;48.114;-2.066;2022-11-11T14:15:47;11.90;99.90
63931;DHT22;50111;48.114;-2.066;2022-11-11T14:20:43;11.90;99.90
63931;DHT22;50111;48.114;-2.066;2022-11-11T15:05:15;11.90;99.90
63931;DHT22;50111;48.114;-2.066;2022-11-11T15:15:26;11.80;99.90
63931;DHT22;50111;48.114;-2.066;2022-11-11T15:25:42;11.60;99.90
63931;DHT22;50111;48.114;-2.066;2022-11-11T15:33:34;11.60;99.90
63931;DHT22;50111;48.114;-2.066;2022-11-11T15:39:03;11.70;99.90
63931;DHT22;50111;48.114;-2.066;2022-11-11T15:41:35;11.60;99.90
63931;DHT22;50111;48.114;-2.066;2022-11-11T15:44:01;11.70;99.90
63931;DHT22;50111;48.114;-2.066;2022-11-11T15:46:27;11.70;99.90
63931;DHT22;50111;48.114;-2.066;2022-11-11T15:48:54;11.60;99.90
63931;DHT22;50111;48.114;-2.066;2022-11-11T15:51:27;11.60;99.90
63931;DHT22;50111;48.114;-2.066;2022-11-11T15:53:53;11.50;99.90
63931;DHT22;50111;48.114;-2.066;2022-11-11T15:56:28;11.60;99.90
63931;DHT22;50111;48.114;-2.066;2022-11-11T15:58:53;11.50;99.90
63931;DHT22;50111;48.114;-2.066;2022-11-11T16:01:19;11.30;99.90
63931;DHT22;50111;48.114;-2.066;2022-11-11T16:03:47;11.30;99.90
63931;DHT22;50111;48.114;-2.066;2022-11-11T16:06:13;11.20;99.90
63931;DHT22;50111;48.114;-2.066;2022-11-11T16:08:46;11.20;99.90
63931;DHT22;50111;48.114;-2.066;2022-11-11T16:11:13;11.20;99.90
63931;DHT22;50111;48.114;-2.066;2022-11-11T16:13:41;11.10;99.90
63931;DHT22;50111;48.114;-2.066;2022-11-11T16:16:13;11.10;99.90
63931;DHT22;50111;48.114;-2.066;2022-11-11T16:18:42;11.10;99.90
63931;DHT22;50111;48.114;-2.066;2022-11-11T16:23:36;11.10;99.90
63931;DHT22;50111;48.114;-2.066;2022-11-11T16:26:02;11.10;99.90
63931;DHT22;50111;48.114;-2.066;2022-11-11T16:33:50;11.10;99.90
63931;DHT22;50111;48.114;-2.066;2022-11-11T16:36:16;11.10;99.90
63931;DHT22;50111;48.114;-2.066;2022-11-11T16:38:41;11.10;99.90
63931;DHT22;50111;48.114;-2.066;2022-11-11T16:43:58;11.10;99.90
63931;DHT22;50111;48.114;-2.066;2022-11-11T16:51:48;11.10;99.90
63931;DHT22;50111;48.114;-2.066;2022-11-11T16:54:17;11.10;99.90
63931;DHT22;50111;48.114;-2.066;2022-11-11T16:56:53;11.10;99.90
63931;DHT22;50111;48.114;-2.066;2022-11-11T17:01:57;11.10;99.90
63931;DHT22;50111;48.114;-2.066;2022-11-11T17:04:22;11.10;99.90
63931;DHT22;50111;48.114;-2.066;2022-11-11T17:06:51;11.20;99.90
63931;DHT22;50111;48.114;-2.066;2022-11-11T17:11:50;11.00;99.90
63931;DHT22;50111;48.114;-2.066;2022-11-11T17:14:16;10.90;99.90
63931;DHT22;50111;48.114;-2.066;2022-11-11T17:16:41;10.90;99.90
63931;DHT22;50111;48.114;-2.066;2022-11-11T17:19:07;10.90;99.90
63931;DHT22;50111;48.114;-2.066;2022-11-11T17:21:32;10.80;99.90
63931;DHT22;50111;48.114;-2.066;2022-11-11T17:23:58;10.80;99.90
63931;DHT22;50111;48.114;-2.066;2022-11-11T17:26:23;10.80;99.90
63931;DHT22;50111;48.114;-2.066;2022-11-11T17:28:49;10.80;99.90
63931;DHT22;50111;48.114;-2.066;2022-11-11T17:31:15;10.90;99.90
63931;DHT22;50111;48.114;-2.066;2022-11-11T17:33:40;10.90;99.90
63931;DHT22;50111;48.114;-2.066;2022-11-11T17:36:06;10.90;99.90
63931;DHT22;50111;48.114;-2.066;2022-11-11T17:38:34;10.90;99.90
63931;DHT22;50111;48.114;-2.066;2022-11-11T17:40:59;10.90;99.90
63931;DHT22;50111;48.114;-2.066;2022-11-11T17:43:25;10.90;99.90
63931;DHT22;50111;48.114;-2.066;2022-11-11T17:45:51;10.90;99.90
63931;DHT22;50111;48.114;-2.066;2022-11-11T17:48:16;10.90;99.90
63931;DHT22;50111;48.114;-2.066;2022-11-11T17:50:42;10.80;99.90
63931;DHT22;50111;48.114;-2.066;2022-11-11T17:53:07;10.80;99.90
63931;DHT22;50111;48.114;-2.066;2022-11-11T17:55:33;10.80;99.90
63931;DHT22;50111;48.114;-2.066;2022-11-11T17:57:59;10.80;99.90
63931;DHT22;50111;48.114;-2.066;2022-11-11T18:00:24;10.70;99.90
63931;DHT22;50111;48.114;-2.066;2022-11-11T18:02:50;10.80;99.90
63931;DHT22;50111;48.114;-2.066;2022-11-11T18:05:15;10.80;99.90
63931;DHT22;50111;48.114;-2.066;2022-11-11T18:07:41;10.90;99.90
63931;DHT22;50111;48.114;-2.066;2022-11-11T18:10:07;10.90;99.90
63931;DHT22;50111;48.114;-2.066;2022-11-11T18:12:33;10.90;99.90
63931;DHT22;50111;48.114;-2.066;2022-11-11T18:14:58;10.90;99.90
63931;DHT22;50111;48.114;-2.066;2022-11-11T18:17:24;10.90;99.90
63931;DHT22;50111;48.114;-2.066;2022-11-11T18:19:49;10.90;99.90
63931;DHT22;50111;48.114;-2.066;2022-11-11T18:22:15;10.80;99.90
63931;DHT22;50111;48.114;-2.066;2022-11-11T18:24:40;10.90;99.90
63931;DHT22;50111;48.114;-2.066;2022-11-11T18:27:06;10.80;99.90
63931;DHT22;50111;48.114;-2.066;2022-11-11T18:29:31;10.80;99.90